createdAt,value
2023-01-17T00:36:17.255Z,20.65
2023-01-17T00:37:17.251Z,20.59
2023-01-17T00:38:17.240Z,20.60
2023-01-17T00:39:17.235Z,20.57
2023-01-17T00:40:17.225Z,20.62
2023-01-17T00:41:17.212Z,20.59
2023-01-17T00:42:17.207Z,20.59
2023-01-17T00:43:17.212Z,20.63
2023-01-17T00:44:17.190Z,20.63
2023-01-17T00:45:17.172Z,20.59
2023-01-17T00:46:17.195Z,20.71
2023-01-17T00:47:17.147Z,20.65
2023-01-17T00:48:17.148Z,20.65
2023-01-17T00:49:17.142Z,20.65
2023-01-17T00:50:17.126Z,20.65
2023-01-17T00:51:17.117Z,20.65
2023-01-17T00:52:17.107Z,20.63
2023-01-17T00:53:17.095Z,20.59
2023-01-17T00:54:18.996Z,20.54
2023-01-17T00:55:17.093Z,20.51
2023-01-17T00:56:17.064Z,20.47
2023-01-17T00:57:17.061Z,20.51
2023-01-17T00:58:17.064Z,20.50
2023-01-17T00:59:17.064Z,20.47
2023-01-17T01:00:17.052Z,20.46
2023-01-17T01:01:17.159Z,20.39
2023-01-17T01:02:17.035Z,20.28
2023-01-17T01:03:17.015Z,20.41
2023-01-17T01:04:17.001Z,20.41
2023-01-17T01:05:16.985Z,20.32
2023-01-17T01:06:16.980Z,20.36
2023-01-17T01:07:16.966Z,20.38
2023-01-17T01:08:16.978Z,20.38
2023-01-17T01:09:16.967Z,20.31
2023-01-17T01:10:16.945Z,20.28
2023-01-17T01:11:16.945Z,20.33
2023-01-17T01:12:16.946Z,20.25
2023-01-17T01:13:16.939Z,20.24
2023-01-17T01:14:16.920Z,20.29
2023-01-17T01:15:16.915Z,20.24
2023-01-17T01:16:16.923Z,20.19
2023-01-17T01:17:16.909Z,20.22
2023-01-17T01:18:16.902Z,20.19
2023-01-17T01:19:17.100Z,20.21
2023-01-17T01:20:16.880Z,20.16
2023-01-17T01:21:16.868Z,20.19
2023-01-17T01:22:16.861Z,20.18
2023-01-17T01:23:16.854Z,20.19
2023-01-17T01:24:16.867Z,20.13
2023-01-17T01:25:16.833Z,20.18
2023-01-17T01:26:16.826Z,20.13
2023-01-17T01:27:16.823Z,20.13
2023-01-17T01:28:16.813Z,20.13
2023-01-17T01:29:16.820Z,20.16
2023-01-17T01:30:16.794Z,20.15
2023-01-17T01:31:16.816Z,20.09
2023-01-17T01:32:16.767Z,20.10
2023-01-17T01:33:16.771Z,20.10
2023-01-17T01:34:16.760Z,20.10
2023-01-17T01:35:16.758Z,20.13
2023-01-17T01:36:16.735Z,20.13
2023-01-17T01:37:16.724Z,20.13
2023-01-17T01:38:16.712Z,20.12
2023-01-17T01:39:16.738Z,20.12
2023-01-17T01:40:16.702Z,20.13
2023-01-17T01:41:16.699Z,20.16
2023-01-17T01:42:16.701Z,20.15
2023-01-17T01:43:16.696Z,20.21
2023-01-17T01:44:16.684Z,20.22
2023-01-17T01:45:16.667Z,20.33
2023-01-17T01:46:16.666Z,20.36
2023-01-17T01:47:16.668Z,20.34
2023-01-17T01:48:16.639Z,20.34
2023-01-17T01:49:16.630Z,20.38
2023-01-17T01:50:16.634Z,20.42
2023-01-17T01:51:16.602Z,20.42
2023-01-17T01:52:16.609Z,20.36
2023-01-17T01:53:16.582Z,20.42
2023-01-17T01:54:16.573Z,20.41
2023-01-17T01:55:16.567Z,20.41
2023-01-17T01:56:16.554Z,20.42
2023-01-17T01:57:16.535Z,20.45
2023-01-17T01:58:16.519Z,20.42
2023-01-17T01:59:16.515Z,20.42
2023-01-17T02:00:16.526Z,20.41
2023-01-17T02:01:16.578Z,20.45
2023-01-17T02:02:16.485Z,20.42
2023-01-17T02:03:16.466Z,20.36
2023-01-17T02:04:16.458Z,20.39
2023-01-17T02:05:16.450Z,20.42
2023-01-17T02:06:16.448Z,20.36
2023-01-17T02:07:16.423Z,20.38
2023-01-17T02:08:16.413Z,20.38
2023-01-17T02:09:16.406Z,20.44
2023-01-17T02:10:16.386Z,20.42
2023-01-17T02:11:16.386Z,20.44
2023-01-17T02:12:16.381Z,20.41
2023-01-17T02:13:16.363Z,20.45
2023-01-17T02:14:16.343Z,20.43
2023-01-17T02:15:16.337Z,20.39
2023-01-17T02:16:16.363Z,20.39
2023-01-17T02:17:16.317Z,20.41
2023-01-17T02:18:16.307Z,20.33
2023-01-17T02:19:16.291Z,20.31
2023-01-17T02:20:16.276Z,20.28
2023-01-17T02:21:16.264Z,20.24
2023-01-17T02:22:16.257Z,20.24
2023-01-17T02:23:16.246Z,20.18
2023-01-17T02:24:16.238Z,20.12
2023-01-17T02:25:16.220Z,20.13
2023-01-17T02:26:16.219Z,20.18
2023-01-17T02:27:16.211Z,20.09
2023-01-17T02:28:16.204Z,20.10
2023-01-17T02:29:16.187Z,20.09
2023-01-17T02:30:16.174Z,20.06
2023-01-17T02:31:16.164Z,20.07
2023-01-17T02:32:16.174Z,20.06
2023-01-17T02:33:16.146Z,20.09
2023-01-17T02:34:16.138Z,19.98
2023-01-17T02:35:16.133Z,19.94
2023-01-17T02:36:16.120Z,19.96
2023-01-17T02:37:16.106Z,19.92
2023-01-17T02:38:16.124Z,19.95
2023-01-17T02:39:16.100Z,19.95
2023-01-17T02:40:16.106Z,19.88
2023-01-17T02:41:16.092Z,19.88
2023-01-17T02:42:16.087Z,19.91
2023-01-17T02:43:16.079Z,19.88
2023-01-17T02:44:16.068Z,19.92
2023-01-17T02:45:16.067Z,19.92
2023-01-17T02:46:16.072Z,19.89
2023-01-17T02:47:16.047Z,19.87
2023-01-17T02:48:16.041Z,19.88
2023-01-17T02:49:16.022Z,19.83
2023-01-17T02:50:16.038Z,19.81
2023-01-17T02:51:16.022Z,19.89
2023-01-17T02:52:16.003Z,19.92
2023-01-17T02:53:15.988Z,19.87
2023-01-17T02:54:15.979Z,19.93
2023-01-17T02:55:15.971Z,20.01
2023-01-17T02:56:15.974Z,19.98
2023-01-17T02:57:15.948Z,20.01
2023-01-17T02:58:15.931Z,20.00
2023-01-17T02:59:15.924Z,20.03
2023-01-17T03:00:15.921Z,20.06
2023-01-17T03:01:16.064Z,20.10
2023-01-17T03:02:16.022Z,20.07
2023-01-17T03:03:15.886Z,20.09
2023-01-17T03:04:15.885Z,20.07
2023-01-17T03:05:15.875Z,20.09
2023-01-17T03:06:15.864Z,20.10
2023-01-17T03:07:15.869Z,20.13
2023-01-17T03:08:15.847Z,20.13
2023-01-17T03:09:15.829Z,20.13
2023-01-17T03:10:15.825Z,20.18
2023-01-17T03:11:15.804Z,20.16
2023-01-17T03:12:15.790Z,20.19
2023-01-17T03:13:15.781Z,20.21
2023-01-17T03:14:15.768Z,20.25
2023-01-17T03:15:15.748Z,20.22
2023-01-17T03:16:15.755Z,20.15
2023-01-17T03:17:15.748Z,20.13
2023-01-17T03:18:15.720Z,20.13
2023-01-17T03:19:15.703Z,20.13
2023-01-17T03:20:15.696Z,20.12
2023-01-17T03:21:15.687Z,20.15
2023-01-17T03:22:15.691Z,20.19
2023-01-17T03:23:15.689Z,20.18
2023-01-17T03:24:15.664Z,20.19
2023-01-17T03:25:15.642Z,20.18
2023-01-17T03:26:15.633Z,20.18
2023-01-17T03:27:15.622Z,20.15
2023-01-17T03:28:15.619Z,20.18
2023-01-17T03:29:15.613Z,20.16
2023-01-17T03:30:15.603Z,20.13
2023-01-17T03:31:15.607Z,20.15
2023-01-17T03:32:15.589Z,20.13
2023-01-17T03:33:15.578Z,20.16
2023-01-17T03:34:15.580Z,20.13
2023-01-17T03:35:15.573Z,20.09
2023-01-17T03:36:15.571Z,20.09
2023-01-17T03:37:15.553Z,19.98
2023-01-17T03:38:15.574Z,20.00
2023-01-17T03:39:15.544Z,20.01
2023-01-17T03:40:15.535Z,19.95
2023-01-17T03:41:15.536Z,19.98
2023-01-17T03:42:15.503Z,19.93
2023-01-17T03:43:15.527Z,19.95
2023-01-17T03:44:15.494Z,19.94
2023-01-17T03:45:15.492Z,19.89
2023-01-17T03:46:15.483Z,19.89
2023-01-17T03:47:15.468Z,19.87
2023-01-17T03:48:15.462Z,19.81
2023-01-17T03:49:15.448Z,19.84
2023-01-17T03:50:15.447Z,19.82
2023-01-17T03:51:15.436Z,19.78
2023-01-17T03:52:15.416Z,19.85
2023-01-17T03:53:15.403Z,19.86
2023-01-17T03:54:15.394Z,19.74
2023-01-17T03:55:15.388Z,19.77
2023-01-17T03:56:15.392Z,19.74
2023-01-17T03:57:15.369Z,19.71
2023-01-17T03:58:15.357Z,19.74
2023-01-17T03:59:15.356Z,19.71
2023-01-17T04:00:15.362Z,19.75
2023-01-17T04:01:15.448Z,19.71
2023-01-17T04:02:15.521Z,19.74
2023-01-17T04:03:15.321Z,19.75
2023-01-17T04:04:15.317Z,19.74
2023-01-17T04:05:15.314Z,19.78
2023-01-17T04:06:15.287Z,19.78
2023-01-17T04:07:15.278Z,19.87
2023-01-17T04:08:15.270Z,19.84
2023-01-17T04:09:15.262Z,19.87
2023-01-17T04:10:15.250Z,19.92
2023-01-17T04:11:15.252Z,19.92
2023-01-17T04:12:15.239Z,19.92
2023-01-17T04:13:15.222Z,19.92
2023-01-17T04:14:15.215Z,19.98
2023-01-17T04:15:15.207Z,19.98
2023-01-17T04:16:15.261Z,19.96
2023-01-17T04:17:15.194Z,19.99
2023-01-17T04:18:15.197Z,19.98
2023-01-17T04:19:15.186Z,20.00
2023-01-17T04:20:15.183Z,20.04
2023-01-17T04:21:15.168Z,20.01
2023-01-17T04:22:15.169Z,20.03
2023-01-17T04:23:15.157Z,20.01
2023-01-17T04:24:17.760Z,20.06
2023-01-17T04:25:15.147Z,20.01
2023-01-17T04:26:15.141Z,20.03
2023-01-17T04:27:15.139Z,20.07
2023-01-17T04:28:15.149Z,20.09
2023-01-17T04:29:15.121Z,20.04
2023-01-17T04:30:15.115Z,20.08
2023-01-17T04:31:15.191Z,20.09
2023-01-17T04:32:15.103Z,20.07
2023-01-17T04:33:15.092Z,20.07
2023-01-17T04:34:15.098Z,20.10
2023-01-17T04:35:15.077Z,20.07
2023-01-17T04:36:15.068Z,19.99
2023-01-17T04:37:15.073Z,20.04
2023-01-17T04:38:15.070Z,20.01
2023-01-17T04:39:15.048Z,20.04
2023-01-17T04:40:15.051Z,20.06
2023-01-17T04:41:15.033Z,19.96
2023-01-17T04:42:15.028Z,19.96
2023-01-17T04:43:15.020Z,19.93
2023-01-17T04:44:15.015Z,19.87
2023-01-17T04:45:14.990Z,19.89
2023-01-17T04:46:15.057Z,19.77
2023-01-17T04:47:14.977Z,19.80
2023-01-17T04:48:15.010Z,19.81
2023-01-17T04:49:14.959Z,19.77
2023-01-17T04:50:15.046Z,19.75
2023-01-17T04:51:14.956Z,19.72
2023-01-17T04:52:14.945Z,19.77
2023-01-17T04:53:14.945Z,19.68
2023-01-17T04:54:14.944Z,19.72
2023-01-17T04:55:14.942Z,19.65
2023-01-17T04:56:14.931Z,19.63
2023-01-17T04:57:14.929Z,19.64
2023-01-17T04:58:14.921Z,19.66
2023-01-17T04:59:14.916Z,19.68
2023-01-17T05:00:14.913Z,19.64
2023-01-17T05:01:15.145Z,19.62
2023-01-17T05:02:14.907Z,19.64
2023-01-17T05:03:14.897Z,19.57
2023-01-17T05:04:14.888Z,19.57
2023-01-17T05:05:14.889Z,19.57
2023-01-17T05:06:14.887Z,19.54
2023-01-17T05:07:14.879Z,19.51
2023-01-17T05:08:14.878Z,19.60
2023-01-17T05:09:14.865Z,19.54
2023-01-17T05:10:14.859Z,19.63
2023-01-17T05:11:14.865Z,19.60
2023-01-17T05:12:14.861Z,19.66
2023-01-17T05:13:14.831Z,19.64
2023-01-17T05:14:14.819Z,19.68
2023-01-17T05:15:14.819Z,19.68
2023-01-17T05:16:14.818Z,19.69
2023-01-17T05:17:14.819Z,19.69
2023-01-17T05:18:14.811Z,19.68
2023-01-17T05:19:14.794Z,19.75
2023-01-17T05:20:14.786Z,19.77
2023-01-17T05:21:14.776Z,19.75
2023-01-17T05:22:14.893Z,19.78
2023-01-17T05:23:14.767Z,19.80
2023-01-17T05:24:14.767Z,19.81
2023-01-17T05:25:14.758Z,19.84
2023-01-17T05:26:14.748Z,19.84
2023-01-17T05:27:14.752Z,19.84
2023-01-17T05:28:14.751Z,19.84
2023-01-17T05:29:14.739Z,19.81
2023-01-17T05:30:14.745Z,19.87
2023-01-17T05:31:14.775Z,19.89
2023-01-17T05:32:14.740Z,19.86
2023-01-17T05:33:14.739Z,19.85
2023-01-17T05:34:14.725Z,19.89
2023-01-17T05:35:14.720Z,19.89
2023-01-17T05:36:14.714Z,19.93
2023-01-17T05:37:14.710Z,19.95
2023-01-17T05:38:14.710Z,19.93
2023-01-17T05:39:14.697Z,19.89
2023-01-17T05:40:14.686Z,19.90
2023-01-17T05:41:14.750Z,19.95
2023-01-17T05:42:14.672Z,19.87
2023-01-17T05:43:14.673Z,19.86
2023-01-17T05:44:14.665Z,19.86
2023-01-17T05:45:14.654Z,19.84
2023-01-17T05:46:14.670Z,19.86
2023-01-17T05:47:14.649Z,19.83
2023-01-17T05:48:14.637Z,19.84
2023-01-17T05:49:14.641Z,19.84
2023-01-17T05:50:14.631Z,19.72
2023-01-17T05:51:14.628Z,19.74
2023-01-17T05:52:14.623Z,19.64
2023-01-17T05:53:14.626Z,19.66
2023-01-17T05:54:14.750Z,19.74
2023-01-17T05:55:14.595Z,19.63
2023-01-17T05:56:14.593Z,19.60
2023-01-17T05:57:14.608Z,19.62
2023-01-17T05:58:14.571Z,19.56
2023-01-17T05:59:14.812Z,19.51
2023-01-17T06:00:14.556Z,19.53
2023-01-17T06:01:14.591Z,19.50
2023-01-17T06:02:14.595Z,19.48
2023-01-17T06:03:14.557Z,19.48
2023-01-17T06:04:14.557Z,19.44
2023-01-17T06:05:14.512Z,19.48
2023-01-17T06:06:14.501Z,19.44
2023-01-17T06:07:14.489Z,19.43
2023-01-17T06:08:14.487Z,19.46
2023-01-17T06:09:14.487Z,19.50
2023-01-17T06:10:14.520Z,19.45
2023-01-17T06:11:14.468Z,19.45
2023-01-17T06:12:14.470Z,19.48
2023-01-17T06:13:14.459Z,19.49
2023-01-17T06:14:14.487Z,19.49
2023-01-17T06:15:14.461Z,19.54
2023-01-17T06:16:14.490Z,19.62
2023-01-17T06:17:14.452Z,19.65
2023-01-17T06:18:14.443Z,19.68
2023-01-17T06:19:14.452Z,19.67
2023-01-17T06:20:14.435Z,19.77
2023-01-17T06:21:14.447Z,19.77
2023-01-17T06:22:14.439Z,19.91
2023-01-17T06:23:14.443Z,20.03
2023-01-17T06:24:14.429Z,20.04
2023-01-17T06:25:14.417Z,20.06
2023-01-17T06:26:14.403Z,20.06
2023-01-17T06:27:14.418Z,20.12
2023-01-17T06:28:14.402Z,20.20
2023-01-17T06:29:14.384Z,20.34
2023-01-17T06:30:14.389Z,20.43
2023-01-17T06:31:14.427Z,20.50
2023-01-17T06:32:14.364Z,20.68
2023-01-17T06:33:14.360Z,20.66
2023-01-17T06:34:14.360Z,20.96
2023-01-17T06:35:14.355Z,20.94
2023-01-17T06:36:14.352Z,21.05
2023-01-17T06:37:14.345Z,21.11
2023-01-17T06:38:14.338Z,21.42
2023-01-17T06:39:15.236Z,21.51
2023-01-17T06:40:14.323Z,21.67
2023-01-17T06:41:14.313Z,21.74
2023-01-17T06:42:14.326Z,21.85
2023-01-17T06:43:14.304Z,21.91
2023-01-17T06:44:14.293Z,22.55
2023-01-17T06:45:14.298Z,22.60
2023-01-17T06:46:14.311Z,22.67
2023-01-17T06:47:14.268Z,22.99
2023-01-17T06:48:14.267Z,22.95
2023-01-17T06:49:14.259Z,22.95
2023-01-17T06:50:14.270Z,23.15
2023-01-17T06:51:14.249Z,23.19
2023-01-17T06:52:14.238Z,23.29
2023-01-17T06:53:14.223Z,23.38
2023-01-17T06:54:14.201Z,23.47
2023-01-17T06:55:14.193Z,23.69
2023-01-17T06:56:14.170Z,23.79
2023-01-17T06:57:14.159Z,23.58
2023-01-17T06:58:14.134Z,23.51
2023-01-17T06:59:14.128Z,23.50
2023-01-17T07:00:14.120Z,23.54
2023-01-17T07:01:14.251Z,23.34
2023-01-17T07:02:14.073Z,23.22
2023-01-17T07:03:14.067Z,23.16
2023-01-17T07:04:14.038Z,23.14
2023-01-17T07:05:14.039Z,23.09
2023-01-17T07:06:14.009Z,23.21
2023-01-17T07:07:13.999Z,23.10
2023-01-17T07:08:13.992Z,22.99
2023-01-17T07:09:13.976Z,22.99
2023-01-17T07:10:13.944Z,22.89
2023-01-17T07:11:19.105Z,22.77
2023-01-17T07:12:14.012Z,22.85
2023-01-17T07:13:13.912Z,22.74
2023-01-17T07:14:13.888Z,22.78
2023-01-17T07:15:13.968Z,22.81
2023-01-17T07:16:13.885Z,22.82
2023-01-17T07:17:13.841Z,22.84
2023-01-17T07:18:13.826Z,22.82
2023-01-17T07:19:13.816Z,22.78
2023-01-17T07:20:13.835Z,22.76
2023-01-17T07:21:13.793Z,22.76
2023-01-17T07:22:13.760Z,22.83
2023-01-17T07:23:13.768Z,22.80
2023-01-17T07:24:13.743Z,22.64
2023-01-17T07:25:13.736Z,22.72
2023-01-17T07:26:13.693Z,22.73
2023-01-17T07:27:13.704Z,22.73
2023-01-17T07:28:13.655Z,22.76
2023-01-17T07:29:13.651Z,22.60
2023-01-17T07:30:13.624Z,22.72
2023-01-17T07:31:13.907Z,22.69
2023-01-17T07:32:13.558Z,22.60
2023-01-17T07:33:13.541Z,22.68
2023-01-17T07:34:13.523Z,22.57
2023-01-17T07:35:13.555Z,22.54
2023-01-17T07:36:13.482Z,22.56
2023-01-17T07:37:15.181Z,22.57
2023-01-17T07:38:13.446Z,22.54
2023-01-17T07:39:13.414Z,22.44
2023-01-17T07:40:13.416Z,22.53
2023-01-17T07:41:13.493Z,22.56
2023-01-17T07:42:13.372Z,22.49
2023-01-17T07:43:13.364Z,22.55
2023-01-17T07:44:13.339Z,22.20
2023-01-17T07:45:13.361Z,21.94
2023-01-17T07:46:13.353Z,22.17
2023-01-17T07:47:13.289Z,22.18
2023-01-17T07:48:13.283Z,22.08
2023-01-17T07:49:13.291Z,22.22
2023-01-17T07:50:13.249Z,22.22
2023-01-17T07:51:13.257Z,22.41
2023-01-17T07:52:13.222Z,22.39
2023-01-17T07:53:13.189Z,22.54
2023-01-17T07:54:13.169Z,22.63
2023-01-17T07:55:13.137Z,22.67
2023-01-17T07:56:13.128Z,22.72
2023-01-17T07:57:13.098Z,22.69
2023-01-17T07:58:13.108Z,22.72
2023-01-17T07:59:13.063Z,22.89
2023-01-17T08:00:13.037Z,22.94
2023-01-17T08:01:13.177Z,22.99
2023-01-17T08:02:12.992Z,23.03
2023-01-17T08:03:12.976Z,23.09
2023-01-17T08:04:12.993Z,23.17
2023-01-17T08:05:12.956Z,23.23
2023-01-17T08:06:12.979Z,23.26
2023-01-17T08:07:12.925Z,23.26
2023-01-17T08:08:12.914Z,23.33
2023-01-17T08:09:12.878Z,23.37
2023-01-17T08:10:12.894Z,23.44
2023-01-17T08:11:12.867Z,23.46
2023-01-17T08:12:12.823Z,23.52
2023-01-17T08:13:12.804Z,23.55
2023-01-17T08:14:12.771Z,23.59
2023-01-17T08:15:12.773Z,23.64
2023-01-17T08:16:12.775Z,23.65
2023-01-17T08:17:12.704Z,23.67
2023-01-17T08:18:12.748Z,23.67
2023-01-17T08:19:12.661Z,23.67
2023-01-17T08:20:12.634Z,23.70
2023-01-17T08:21:12.598Z,23.71
2023-01-17T08:22:12.586Z,23.73
2023-01-17T08:23:12.555Z,23.78
2023-01-17T08:24:12.537Z,23.74
2023-01-17T08:25:12.499Z,23.82
2023-01-17T08:26:12.463Z,23.83
2023-01-17T08:27:12.432Z,23.83
2023-01-17T08:28:12.403Z,23.81
2023-01-17T08:29:12.400Z,23.81
2023-01-17T08:30:12.374Z,23.87
2023-01-17T08:31:12.351Z,23.81
2023-01-17T08:32:12.291Z,23.87
2023-01-17T08:33:12.265Z,23.85
2023-01-17T08:34:12.237Z,23.90
2023-01-17T08:35:12.209Z,23.89
2023-01-17T08:36:12.171Z,23.95
2023-01-17T08:37:12.159Z,23.76
2023-01-17T08:38:12.123Z,23.89
2023-01-17T08:39:12.128Z,23.82
2023-01-17T08:40:12.062Z,23.72
2023-01-17T08:41:12.069Z,23.54
2023-01-17T08:42:12.035Z,23.55
2023-01-17T08:43:11.999Z,23.54
2023-01-17T08:44:11.980Z,23.54
2023-01-17T08:45:11.953Z,23.55
2023-01-17T08:46:11.999Z,23.57
2023-01-17T08:47:11.922Z,23.61
2023-01-17T08:48:11.869Z,23.58
2023-01-17T08:49:11.851Z,23.61
2023-01-17T08:50:11.816Z,23.61
2023-01-17T08:51:11.781Z,23.60
2023-01-17T08:52:11.757Z,23.76
2023-01-17T08:53:11.732Z,23.83
2023-01-17T08:54:11.700Z,23.69
2023-01-17T08:55:11.673Z,23.72
2023-01-17T08:56:11.625Z,23.75
2023-01-17T08:57:11.615Z,23.62
2023-01-17T08:58:11.571Z,23.61
2023-01-17T08:59:11.584Z,23.62
2023-01-17T09:00:11.508Z,23.54
2023-01-17T09:01:11.589Z,23.41
2023-01-17T09:02:11.468Z,23.37
2023-01-17T09:03:11.415Z,23.32
2023-01-17T09:04:11.441Z,23.13
2023-01-17T09:05:11.351Z,23.04
2023-01-17T09:06:11.334Z,22.88
2023-01-17T09:07:11.290Z,22.82
2023-01-17T09:08:11.254Z,22.72
2023-01-17T09:09:11.236Z,22.54
2023-01-17T09:10:11.206Z,22.71
2023-01-17T09:11:11.191Z,22.55
2023-01-17T09:12:11.136Z,22.43
2023-01-17T09:13:11.960Z,22.52
2023-01-17T09:14:11.080Z,22.58
2023-01-17T09:15:11.046Z,22.51
2023-01-17T09:16:11.040Z,22.56
2023-01-17T09:17:11.983Z,22.55
2023-01-17T09:18:10.951Z,22.50
2023-01-17T09:19:10.941Z,22.44
2023-01-17T09:20:10.920Z,22.47
2023-01-17T09:21:10.898Z,22.44
2023-01-17T09:22:10.855Z,22.49
2023-01-17T09:23:10.822Z,22.41
2023-01-17T09:24:10.788Z,22.53
2023-01-17T09:25:10.768Z,22.51
2023-01-17T09:26:10.723Z,22.37
2023-01-17T09:27:10.716Z,22.53
2023-01-17T09:28:10.671Z,22.40
2023-01-17T09:29:10.639Z,22.32
2023-01-17T09:30:10.610Z,22.41
2023-01-17T09:31:10.631Z,22.45
2023-01-17T09:32:10.571Z,22.53
2023-01-17T09:33:10.535Z,22.62
2023-01-17T09:34:10.498Z,22.70
2023-01-17T09:35:10.486Z,22.54
2023-01-17T09:36:10.443Z,22.35
2023-01-17T09:37:10.426Z,22.41
2023-01-17T09:38:10.390Z,22.41
2023-01-17T09:39:10.353Z,22.43
2023-01-17T09:40:10.333Z,22.44
2023-01-17T09:41:10.300Z,22.44
2023-01-17T09:42:10.267Z,22.41
2023-01-17T09:43:10.254Z,22.36
2023-01-17T09:44:10.217Z,22.34
2023-01-17T09:45:10.191Z,22.33
2023-01-17T09:46:10.282Z,22.16
2023-01-17T09:47:10.207Z,22.26
2023-01-17T09:48:10.147Z,21.81
2023-01-17T09:49:10.107Z,22.13
2023-01-17T09:50:10.072Z,22.52
2023-01-17T09:51:10.039Z,22.63
2023-01-17T09:52:10.012Z,22.73
2023-01-17T09:53:09.981Z,22.81
2023-01-17T09:54:09.956Z,22.90
2023-01-17T09:55:09.928Z,22.92
2023-01-17T09:56:09.897Z,23.01
2023-01-17T09:57:09.863Z,23.22
2023-01-17T09:58:09.849Z,21.51
2023-01-17T09:59:09.810Z,20.16
2023-01-17T10:00:09.781Z,19.55
2023-01-17T10:01:09.875Z,19.08
2023-01-17T10:02:09.948Z,19.18
2023-01-17T10:03:09.971Z,18.76
2023-01-17T10:04:09.806Z,18.54
2023-01-17T10:05:09.772Z,18.26
2023-01-17T10:06:09.668Z,18.17
2023-01-17T10:07:09.656Z,18.56
2023-01-17T10:08:09.633Z,18.41
2023-01-17T10:09:09.622Z,18.32
2023-01-17T10:10:09.620Z,18.19
2023-01-17T10:11:09.593Z,18.25
2023-01-17T10:12:09.584Z,17.78
2023-01-17T10:13:09.586Z,17.64
2023-01-17T10:14:09.554Z,17.84
2023-01-17T10:15:09.555Z,17.72
2023-01-17T10:16:09.541Z,17.82
2023-01-17T10:17:09.525Z,17.96
2023-01-17T10:18:16.571Z,17.95
2023-01-17T10:19:10.504Z,17.80
2023-01-17T10:20:09.493Z,17.77
2023-01-17T10:21:09.500Z,17.45
2023-01-17T10:22:09.489Z,17.39
2023-01-17T10:23:09.479Z,17.25
2023-01-17T10:24:09.472Z,17.41
2023-01-17T10:25:09.468Z,17.58
2023-01-17T10:26:09.444Z,17.66
2023-01-17T10:27:09.459Z,17.68
2023-01-17T10:28:09.460Z,18.11
2023-01-17T10:29:09.438Z,18.01
2023-01-17T10:30:09.440Z,18.06
2023-01-17T10:31:09.476Z,17.95
2023-01-17T10:32:09.428Z,17.94
2023-01-17T10:33:09.459Z,17.89
2023-01-17T10:34:09.415Z,17.86
2023-01-17T10:35:09.419Z,18.25
2023-01-17T10:36:09.423Z,18.35
2023-01-17T10:37:09.401Z,17.65
2023-01-17T10:38:09.424Z,17.16
2023-01-17T10:39:09.401Z,17.16
2023-01-17T10:40:09.385Z,17.68
2023-01-17T10:41:09.380Z,17.86
2023-01-17T10:42:09.382Z,17.99
2023-01-17T10:43:09.362Z,18.63
2023-01-17T10:44:09.366Z,19.00
2023-01-17T10:45:09.342Z,19.58
2023-01-17T10:46:09.366Z,19.88
2023-01-17T10:47:09.306Z,19.80
2023-01-17T10:48:09.297Z,19.73
2023-01-17T10:49:09.285Z,19.40
2023-01-17T10:50:09.268Z,19.49
2023-01-17T10:51:09.267Z,20.05
2023-01-17T10:52:09.238Z,20.22
2023-01-17T10:53:09.232Z,19.92
2023-01-17T10:54:09.215Z,20.10
2023-01-17T10:55:09.186Z,20.30
2023-01-17T10:56:09.179Z,20.59
2023-01-17T10:57:09.411Z,20.40
2023-01-17T10:58:09.133Z,20.32
2023-01-17T10:59:09.114Z,20.50
2023-01-17T11:00:09.101Z,20.48
2023-01-17T11:01:09.165Z,20.53
2023-01-17T11:02:09.124Z,20.55
2023-01-17T11:03:09.098Z,20.55
2023-01-17T11:04:09.018Z,20.59
2023-01-17T11:05:08.990Z,20.56
2023-01-17T11:06:08.958Z,20.70
2023-01-17T11:07:08.924Z,20.81
2023-01-17T11:08:08.920Z,20.81
2023-01-17T11:09:08.882Z,20.78
2023-01-17T11:10:08.859Z,20.95
2023-01-17T11:11:08.831Z,20.87
2023-01-17T11:12:08.817Z,20.89
2023-01-17T11:13:08.788Z,20.83
2023-01-17T11:14:08.778Z,20.84
2023-01-17T11:15:08.755Z,20.98
2023-01-17T11:16:08.742Z,21.04
2023-01-17T11:17:08.703Z,21.07
2023-01-17T11:18:08.699Z,21.04
2023-01-17T11:19:08.738Z,21.12
2023-01-17T11:20:08.657Z,21.16
2023-01-17T11:21:08.631Z,21.12
2023-01-17T11:22:08.588Z,21.17
2023-01-17T11:23:08.583Z,21.21
2023-01-17T11:24:08.577Z,21.26
2023-01-17T11:25:08.521Z,21.29
2023-01-17T11:26:08.516Z,21.23
2023-01-17T11:27:08.489Z,21.23
2023-01-17T11:28:08.463Z,21.23
2023-01-17T11:29:08.454Z,21.24
2023-01-17T11:30:08.429Z,21.21
2023-01-17T11:31:08.467Z,21.24
2023-01-17T11:32:08.383Z,21.31
2023-01-17T11:33:08.365Z,21.26
2023-01-17T11:34:08.354Z,21.31
2023-01-17T11:35:08.325Z,21.52
2023-01-17T11:36:08.306Z,21.70
2023-01-17T11:37:08.309Z,21.59
2023-01-17T11:38:08.293Z,21.67
2023-01-17T11:39:08.227Z,22.04
2023-01-17T11:40:08.208Z,21.98
2023-01-17T11:41:08.194Z,22.07
2023-01-17T11:42:08.168Z,22.17
2023-01-17T11:43:08.148Z,22.17
2023-01-17T11:44:08.126Z,22.22
2023-01-17T11:45:08.149Z,22.35
2023-01-17T11:46:08.170Z,22.25
2023-01-17T11:47:08.062Z,22.22
2023-01-17T11:48:08.047Z,22.22
2023-01-17T11:49:08.002Z,22.40
2023-01-17T11:50:08.008Z,22.38
2023-01-17T11:51:07.970Z,22.36
2023-01-17T11:52:07.965Z,22.39
2023-01-17T11:53:07.936Z,22.24
2023-01-17T11:54:07.908Z,22.24
2023-01-17T11:55:07.913Z,22.21
2023-01-17T11:56:07.881Z,22.45
2023-01-17T11:57:07.873Z,22.35
2023-01-17T11:58:07.865Z,22.89
2023-01-17T11:59:07.877Z,22.54
2023-01-17T12:00:07.833Z,22.10
2023-01-17T12:01:07.858Z,22.00
2023-01-17T12:02:07.782Z,21.98
2023-01-17T12:03:07.766Z,21.98
2023-01-17T12:04:07.757Z,21.80
2023-01-17T12:05:07.797Z,21.74
2023-01-17T12:06:07.721Z,21.63
2023-01-17T12:07:07.696Z,21.63
2023-01-17T12:08:07.674Z,21.58
2023-01-17T12:09:07.660Z,21.64
2023-01-17T12:10:07.639Z,21.52
2023-01-17T12:11:07.635Z,21.46
2023-01-17T12:12:07.610Z,21.48
2023-01-17T12:13:07.594Z,21.38
2023-01-17T12:14:07.582Z,21.23
2023-01-17T12:15:07.568Z,21.22
2023-01-17T12:16:07.585Z,21.25
2023-01-17T12:17:07.519Z,21.17
2023-01-17T12:18:07.520Z,21.13
2023-01-17T12:19:07.496Z,21.07
2023-01-17T12:20:07.489Z,21.09
2023-01-17T12:21:07.469Z,21.05
2023-01-17T12:22:07.457Z,20.99
2023-01-17T12:23:07.439Z,21.03
2023-01-17T12:24:07.415Z,21.06
2023-01-17T12:25:07.412Z,21.06
2023-01-17T12:26:07.423Z,20.93
2023-01-17T12:27:07.387Z,20.91
2023-01-17T12:28:07.385Z,20.97
2023-01-17T12:29:07.363Z,20.88
2023-01-17T12:30:07.356Z,20.86
2023-01-17T12:31:07.401Z,20.94
2023-01-17T12:32:07.331Z,20.85
2023-01-17T12:33:07.318Z,20.86
2023-01-17T12:34:08.127Z,20.77
2023-01-17T12:35:07.283Z,20.76
2023-01-17T12:36:07.268Z,20.74
2023-01-17T12:37:07.259Z,20.73
2023-01-17T12:38:07.229Z,20.68
2023-01-17T12:39:07.214Z,20.73
2023-01-17T12:40:07.197Z,20.73
2023-01-17T12:41:07.227Z,20.74
2023-01-17T12:42:07.163Z,20.77
2023-01-17T12:43:07.157Z,20.77
2023-01-17T12:44:07.130Z,20.70
2023-01-17T12:45:07.118Z,20.73
2023-01-17T12:46:07.102Z,20.76
2023-01-17T12:47:07.070Z,20.71
2023-01-17T12:48:07.055Z,20.65
2023-01-17T12:49:07.034Z,20.67
2023-01-17T12:50:07.036Z,20.65
2023-01-17T12:51:07.009Z,20.62
2023-01-17T12:52:06.990Z,20.63
2023-01-17T12:53:06.974Z,20.53
2023-01-17T12:54:06.950Z,20.49
2023-01-17T12:55:06.942Z,20.46
2023-01-17T12:56:06.935Z,20.49
2023-01-17T12:57:06.917Z,20.44
2023-01-17T12:58:06.894Z,20.46
2023-01-17T12:59:06.891Z,20.46
2023-01-17T13:00:06.941Z,20.35
2023-01-17T13:01:07.041Z,20.39
2023-01-17T13:02:06.935Z,20.46
2023-01-17T13:03:06.827Z,20.44
2023-01-17T13:04:06.806Z,20.43
2023-01-17T13:05:06.794Z,20.47
2023-01-17T13:06:06.779Z,20.39
2023-01-17T13:07:06.761Z,20.43
2023-01-17T13:08:06.746Z,20.43
2023-01-17T13:09:06.726Z,20.43
2023-01-17T13:10:06.715Z,20.45
2023-01-17T13:11:06.703Z,20.42
2023-01-17T13:12:06.693Z,20.42
2023-01-17T13:13:06.683Z,20.36
2023-01-17T13:14:06.664Z,20.44
2023-01-17T13:15:06.652Z,20.41
2023-01-17T13:16:06.658Z,20.45
2023-01-17T13:17:06.631Z,20.36
2023-01-17T13:18:06.624Z,20.39
2023-01-17T13:19:06.611Z,20.45
2023-01-17T13:20:06.603Z,20.42
2023-01-17T13:21:06.603Z,20.39
2023-01-17T13:22:06.584Z,20.48
2023-01-17T13:23:06.563Z,20.42
2023-01-17T13:24:06.555Z,20.45
2023-01-17T13:25:06.537Z,20.41
2023-01-17T13:26:06.539Z,20.44
2023-01-17T13:27:06.526Z,20.45
2023-01-17T13:28:06.511Z,20.48